sensor_id;sensor_type;location;lat;lon;timestamp;P1;durP1;ratioP1;P2;durP2;ratioP2
4957;SDS011;2494;51.872;9.688;2023-03-04T00:00:04;40.93;;;22.23;;
4957;SDS011;2494;51.872;9.688;2023-03-04T00:02:49;36.83;;;21.97;;
4957;SDS011;2494;51.872;9.688;2023-03-04T00:05:34;43.83;;;22.67;;
4957;SDS011;2494;51.872;9.688;2023-03-04T00:08:20;36.50;;;21.33;;
4957;SDS011;2494;51.872;9.688;2023-03-04T00:11:06;39.47;;;23.13;;
4957;SDS011;2494;51.872;9.688;2023-03-04T00:13:51;46.80;;;24.93;;
4957;SDS011;2494;51.872;9.688;2023-03-04T00:16:36;45.00;;;22.43;;
4957;SDS011;2494;51.872;9.688;2023-03-04T00:19:22;45.00;;;22.57;;
4957;SDS011;2494;51.872;9.688;2023-03-04T00:22:07;41.50;;;20.50;;
4957;SDS011;2494;51.872;9.688;2023-03-04T00:24:52;39.73;;;20.67;;
4957;SDS011;2494;51.872;9.688;2023-03-04T00:27:38;52.60;;;21.80;;
4957;SDS011;2494;51.872;9.688;2023-03-04T00:30:25;36.50;;;21.70;;
4957;SDS011;2494;51.872;9.688;2023-03-04T00:33:10;44.63;;;21.97;;
4957;SDS011;2494;51.872;9.688;2023-03-04T00:35:55;43.40;;;19.07;;
4957;SDS011;2494;51.872;9.688;2023-03-04T00:38:40;40.80;;;19.70;;
4957;SDS011;2494;51.872;9.688;2023-03-04T00:41:25;41.70;;;21.97;;
4957;SDS011;2494;51.872;9.688;2023-03-04T00:44:11;33.17;;;20.67;;
4957;SDS011;2494;51.872;9.688;2023-03-04T00:46:56;37.83;;;20.93;;
4957;SDS011;2494;51.872;9.688;2023-03-04T00:49:41;35.80;;;18.10;;
4957;SDS011;2494;51.872;9.688;2023-03-04T00:52:26;34.67;;;17.90;;
4957;SDS011;2494;51.872;9.688;2023-03-04T00:55:12;39.73;;;21.07;;
4957;SDS011;2494;51.872;9.688;2023-03-04T00:57:56;35.57;;;19.07;;
4957;SDS011;2494;51.872;9.688;2023-03-04T01:00:43;37.60;;;19.47;;
4957;SDS011;2494;51.872;9.688;2023-03-04T01:03:28;38.20;;;18.50;;
4957;SDS011;2494;51.872;9.688;2023-03-04T01:06:15;35.13;;;18.00;;
4957;SDS011;2494;51.872;9.688;2023-03-04T01:09:00;38.27;;;20.00;;
4957;SDS011;2494;51.872;9.688;2023-03-04T01:11:45;31.57;;;17.33;;
4957;SDS011;2494;51.872;9.688;2023-03-04T01:14:30;32.93;;;19.00;;
4957;SDS011;2494;51.872;9.688;2023-03-04T01:17:17;33.27;;;18.10;;
4957;SDS011;2494;51.872;9.688;2023-03-04T01:20:02;31.57;;;17.50;;
4957;SDS011;2494;51.872;9.688;2023-03-04T01:22:47;32.10;;;16.30;;
4957;SDS011;2494;51.872;9.688;2023-03-04T01:25:33;33.50;;;17.20;;
4957;SDS011;2494;51.872;9.688;2023-03-04T01:28:17;33.87;;;17.17;;
4957;SDS011;2494;51.872;9.688;2023-03-04T01:31:03;32.37;;;16.63;;
4957;SDS011;2494;51.872;9.688;2023-03-04T01:33:49;33.53;;;15.60;;
4957;SDS011;2494;51.872;9.688;2023-03-04T01:36:35;33.87;;;13.97;;
4957;SDS011;2494;51.872;9.688;2023-03-04T01:39:20;24.50;;;12.37;;
4957;SDS011;2494;51.872;9.688;2023-03-04T01:42:05;25.07;;;13.70;;
4957;SDS011;2494;51.872;9.688;2023-03-04T01:44:51;22.50;;;12.17;;
4957;SDS011;2494;51.872;9.688;2023-03-04T01:47:36;22.80;;;12.13;;
4957;SDS011;2494;51.872;9.688;2023-03-04T01:50:22;21.67;;;11.20;;
4957;SDS011;2494;51.872;9.688;2023-03-04T01:53:11;24.83;;;8.70;;
4957;SDS011;2494;51.872;9.688;2023-03-04T01:56:00;23.33;;;8.93;;
4957;SDS011;2494;51.872;9.688;2023-03-04T02:01:48;26.57;;;8.77;;
4957;SDS011;2494;51.872;9.688;2023-03-04T02:04:34;20.20;;;7.50;;
4957;SDS011;2494;51.872;9.688;2023-03-04T02:07:20;18.93;;;6.83;;
4957;SDS011;2494;51.872;9.688;2023-03-04T02:10:05;14.93;;;5.90;;
4957;SDS011;2494;51.872;9.688;2023-03-04T02:12:52;16.10;;;6.37;;
4957;SDS011;2494;51.872;9.688;2023-03-04T02:15:37;15.90;;;7.40;;
4957;SDS011;2494;51.872;9.688;2023-03-04T02:18:22;23.40;;;7.07;;
4957;SDS011;2494;51.872;9.688;2023-03-04T02:21:09;24.83;;;6.37;;
4957;SDS011;2494;51.872;9.688;2023-03-04T02:24:01;17.67;;;6.50;;
4957;SDS011;2494;51.872;9.688;2023-03-04T02:26:49;15.17;;;5.47;;
4957;SDS011;2494;51.872;9.688;2023-03-04T02:29:34;13.33;;;5.63;;
4957;SDS011;2494;51.872;9.688;2023-03-04T02:32:19;14.47;;;5.37;;
4957;SDS011;2494;51.872;9.688;2023-03-04T02:35:04;13.07;;;6.23;;
4957;SDS011;2494;51.872;9.688;2023-03-04T02:37:50;16.73;;;5.63;;
4957;SDS011;2494;51.872;9.688;2023-03-04T02:40:35;9.77;;;5.07;;
4957;SDS011;2494;51.872;9.688;2023-03-04T02:43:22;13.20;;;5.20;;
4957;SDS011;2494;51.872;9.688;2023-03-04T02:46:09;19.00;;;5.10;;
4957;SDS011;2494;51.872;9.688;2023-03-04T02:48:54;24.00;;;4.50;;
4957;SDS011;2494;51.872;9.688;2023-03-04T02:51:40;15.20;;;4.87;;
4957;SDS011;2494;51.872;9.688;2023-03-04T02:54:25;16.70;;;5.00;;
4957;SDS011;2494;51.872;9.688;2023-03-04T02:57:10;16.37;;;4.30;;
4957;SDS011;2494;51.872;9.688;2023-03-04T02:59:57;13.13;;;4.17;;
4957;SDS011;2494;51.872;9.688;2023-03-04T03:02:42;15.83;;;4.30;;
4957;SDS011;2494;51.872;9.688;2023-03-04T03:05:28;21.33;;;4.43;;
4957;SDS011;2494;51.872;9.688;2023-03-04T03:08:13;19.10;;;6.00;;
4957;SDS011;2494;51.872;9.688;2023-03-04T03:10:59;10.97;;;4.00;;
4957;SDS011;2494;51.872;9.688;2023-03-04T03:13:44;9.40;;;3.90;;
4957;SDS011;2494;51.872;9.688;2023-03-04T03:16:30;13.63;;;3.23;;
4957;SDS011;2494;51.872;9.688;2023-03-04T03:19:16;11.63;;;3.67;;
4957;SDS011;2494;51.872;9.688;2023-03-04T03:22:00;18.57;;;4.50;;
4957;SDS011;2494;51.872;9.688;2023-03-04T03:24:46;14.30;;;4.77;;
4957;SDS011;2494;51.872;9.688;2023-03-04T03:27:31;8.80;;;3.60;;
4957;SDS011;2494;51.872;9.688;2023-03-04T03:30:16;11.73;;;3.70;;
4957;SDS011;2494;51.872;9.688;2023-03-04T03:33:03;12.13;;;3.43;;
4957;SDS011;2494;51.872;9.688;2023-03-04T03:35:48;16.37;;;3.70;;
4957;SDS011;2494;51.872;9.688;2023-03-04T03:38:33;21.07;;;4.13;;
4957;SDS011;2494;51.872;9.688;2023-03-04T03:41:18;13.83;;;3.30;;
4957;SDS011;2494;51.872;9.688;2023-03-04T03:44:03;10.60;;;3.00;;
4957;SDS011;2494;51.872;9.688;2023-03-04T03:46:48;11.83;;;2.90;;
4957;SDS011;2494;51.872;9.688;2023-03-04T03:49:35;10.70;;;3.20;;
4957;SDS011;2494;51.872;9.688;2023-03-04T03:52:20;12.53;;;2.93;;
4957;SDS011;2494;51.872;9.688;2023-03-04T03:55:05;8.00;;;3.40;;
4957;SDS011;2494;51.872;9.688;2023-03-04T03:57:51;16.27;;;3.93;;
4957;SDS011;2494;51.872;9.688;2023-03-04T04:00:36;7.90;;;2.90;;
4957;SDS011;2494;51.872;9.688;2023-03-04T04:03:21;5.40;;;2.80;;
4957;SDS011;2494;51.872;9.688;2023-03-04T04:06:08;8.83;;;3.43;;
4957;SDS011;2494;51.872;9.688;2023-03-04T04:08:53;11.03;;;3.23;;
4957;SDS011;2494;51.872;9.688;2023-03-04T04:11:38;12.40;;;3.37;;
4957;SDS011;2494;51.872;9.688;2023-03-04T04:14:23;11.50;;;3.37;;
4957;SDS011;2494;51.872;9.688;2023-03-04T04:17:08;11.70;;;2.77;;
4957;SDS011;2494;51.872;9.688;2023-03-04T04:19:53;11.90;;;3.90;;
4957;SDS011;2494;51.872;9.688;2023-03-04T04:22:40;8.87;;;2.90;;
4957;SDS011;2494;51.872;9.688;2023-03-04T04:25:25;10.90;;;3.10;;
4957;SDS011;2494;51.872;9.688;2023-03-04T04:28:10;8.67;;;3.17;;
4957;SDS011;2494;51.872;9.688;2023-03-04T04:30:55;5.40;;;2.43;;
4957;SDS011;2494;51.872;9.688;2023-03-04T04:33:40;16.70;;;2.77;;
4957;SDS011;2494;51.872;9.688;2023-03-04T04:36:25;7.03;;;2.63;;
4957;SDS011;2494;51.872;9.688;2023-03-04T04:39:12;10.93;;;2.70;;
4957;SDS011;2494;51.872;9.688;2023-03-04T04:41:57;8.90;;;2.60;;
4957;SDS011;2494;51.872;9.688;2023-03-04T04:44:42;6.20;;;2.10;;
4957;SDS011;2494;51.872;9.688;2023-03-04T04:47:26;7.80;;;2.20;;
4957;SDS011;2494;51.872;9.688;2023-03-04T04:50:12;9.17;;;2.13;;
4957;SDS011;2494;51.872;9.688;2023-03-04T04:52:57;10.67;;;4.10;;
4957;SDS011;2494;51.872;9.688;2023-03-04T04:55:43;8.67;;;2.50;;
4957;SDS011;2494;51.872;9.688;2023-03-04T04:58:28;10.10;;;2.53;;
4957;SDS011;2494;51.872;9.688;2023-03-04T05:01:13;10.57;;;3.00;;
4957;SDS011;2494;51.872;9.688;2023-03-04T05:03:59;14.00;;;2.23;;
4957;SDS011;2494;51.872;9.688;2023-03-04T05:06:44;7.83;;;2.30;;
4957;SDS011;2494;51.872;9.688;2023-03-04T05:09:29;18.80;;;2.20;;
4957;SDS011;2494;51.872;9.688;2023-03-04T05:12:15;10.73;;;2.30;;
4957;SDS011;2494;51.872;9.688;2023-03-04T05:15:00;11.33;;;2.27;;
4957;SDS011;2494;51.872;9.688;2023-03-04T05:17:45;3.93;;;1.80;;
4957;SDS011;2494;51.872;9.688;2023-03-04T05:20:30;3.97;;;1.80;;
4957;SDS011;2494;51.872;9.688;2023-03-04T05:23:15;5.80;;;2.17;;
4957;SDS011;2494;51.872;9.688;2023-03-04T05:26:00;7.90;;;2.00;;
4957;SDS011;2494;51.872;9.688;2023-03-04T05:28:47;10.33;;;3.93;;
4957;SDS011;2494;51.872;9.688;2023-03-04T05:31:32;12.97;;;2.10;;
4957;SDS011;2494;51.872;9.688;2023-03-04T05:34:17;5.13;;;1.77;;
4957;SDS011;2494;51.872;9.688;2023-03-04T05:37:03;8.53;;;2.37;;
4957;SDS011;2494;51.872;9.688;2023-03-04T05:39:48;7.27;;;2.77;;
4957;SDS011;2494;51.872;9.688;2023-03-04T05:42:33;5.00;;;2.70;;
4957;SDS011;2494;51.872;9.688;2023-03-04T05:45:19;3.43;;;1.67;;
4957;SDS011;2494;51.872;9.688;2023-03-04T05:48:04;7.60;;;1.87;;
4957;SDS011;2494;51.872;9.688;2023-03-04T05:50:52;6.47;;;1.97;;
4957;SDS011;2494;51.872;9.688;2023-03-04T05:53:37;7.93;;;2.87;;
4957;SDS011;2494;51.872;9.688;2023-03-04T05:56:23;8.33;;;2.90;;
4957;SDS011;2494;51.872;9.688;2023-03-04T05:59:08;6.20;;;2.60;;
4957;SDS011;2494;51.872;9.688;2023-03-04T06:01:54;5.47;;;2.50;;
4957;SDS011;2494;51.872;9.688;2023-03-04T06:04:39;5.43;;;1.60;;
4957;SDS011;2494;51.872;9.688;2023-03-04T06:07:24;9.17;;;1.90;;
4957;SDS011;2494;51.872;9.688;2023-03-04T06:10:10;6.77;;;2.47;;
4957;SDS011;2494;51.872;9.688;2023-03-04T06:12:55;8.33;;;1.93;;
4957;SDS011;2494;51.872;9.688;2023-03-04T06:15:40;6.83;;;2.40;;
4957;SDS011;2494;51.872;9.688;2023-03-04T06:18:27;6.90;;;1.70;;
4957;SDS011;2494;51.872;9.688;2023-03-04T06:21:15;6.80;;;2.37;;
4957;SDS011;2494;51.872;9.688;2023-03-04T06:24:00;8.33;;;2.50;;
4957;SDS011;2494;51.872;9.688;2023-03-04T06:26:45;7.13;;;1.63;;
4957;SDS011;2494;51.872;9.688;2023-03-04T06:29:30;10.80;;;3.00;;
4957;SDS011;2494;51.872;9.688;2023-03-04T06:32:15;4.60;;;2.30;;
4957;SDS011;2494;51.872;9.688;2023-03-04T06:35:01;9.57;;;2.27;;
4957;SDS011;2494;51.872;9.688;2023-03-04T06:37:47;13.83;;;2.30;;
4957;SDS011;2494;51.872;9.688;2023-03-04T06:40:32;4.83;;;1.90;;
4957;SDS011;2494;51.872;9.688;2023-03-04T06:43:18;6.20;;;2.40;;
4957;SDS011;2494;51.872;9.688;2023-03-04T06:46:03;7.80;;;2.30;;
4957;SDS011;2494;51.872;9.688;2023-03-04T06:48:48;4.90;;;1.80;;
4957;SDS011;2494;51.872;9.688;2023-03-04T06:51:35;18.43;;;2.00;;
4957;SDS011;2494;51.872;9.688;2023-03-04T06:54:20;5.90;;;2.00;;
4957;SDS011;2494;51.872;9.688;2023-03-04T06:57:06;5.40;;;1.93;;
4957;SDS011;2494;51.872;9.688;2023-03-04T06:59:51;8.87;;;2.13;;
4957;SDS011;2494;51.872;9.688;2023-03-04T07:02:36;9.40;;;2.77;;
4957;SDS011;2494;51.872;9.688;2023-03-04T07:05:21;3.10;;;1.80;;
4957;SDS011;2494;51.872;9.688;2023-03-04T07:08:07;10.50;;;1.70;;
4957;SDS011;2494;51.872;9.688;2023-03-04T07:10:53;8.20;;;2.57;;
4957;SDS011;2494;51.872;9.688;2023-03-04T07:13:38;7.53;;;1.60;;
4957;SDS011;2494;51.872;9.688;2023-03-04T07:16:22;9.30;;;2.50;;
4957;SDS011;2494;51.872;9.688;2023-03-04T07:19:07;5.80;;;2.03;;
4957;SDS011;2494;51.872;9.688;2023-03-04T07:21:53;6.80;;;1.90;;
4957;SDS011;2494;51.872;9.688;2023-03-04T07:24:39;4.47;;;1.90;;
4957;SDS011;2494;51.872;9.688;2023-03-04T07:27:25;4.40;;;2.00;;
4957;SDS011;2494;51.872;9.688;2023-03-04T07:30:10;3.93;;;2.20;;
4957;SDS011;2494;51.872;9.688;2023-03-04T07:32:55;11.00;;;2.13;;
4957;SDS011;2494;51.872;9.688;2023-03-04T07:35:41;5.80;;;2.47;;
4957;SDS011;2494;51.872;9.688;2023-03-04T07:38:26;2.47;;;1.50;;
4957;SDS011;2494;51.872;9.688;2023-03-04T07:41:13;7.00;;;3.37;;
4957;SDS011;2494;51.872;9.688;2023-03-04T07:43:58;7.43;;;2.10;;
4957;SDS011;2494;51.872;9.688;2023-03-04T07:46:43;2.23;;;2.03;;
4957;SDS011;2494;51.872;9.688;2023-03-04T07:49:28;10.00;;;2.00;;
4957;SDS011;2494;51.872;9.688;2023-03-04T07:52:13;2.23;;;1.63;;
4957;SDS011;2494;51.872;9.688;2023-03-04T07:54:58;1.83;;;1.50;;
4957;SDS011;2494;51.872;9.688;2023-03-04T07:57:45;3.47;;;2.03;;
4957;SDS011;2494;51.872;9.688;2023-03-04T08:00:31;10.10;;;2.17;;
4957;SDS011;2494;51.872;9.688;2023-03-04T08:03:17;4.47;;;2.30;;
4957;SDS011;2494;51.872;9.688;2023-03-04T08:06:03;16.23;;;4.33;;
4957;SDS011;2494;51.872;9.688;2023-03-04T08:08:48;7.13;;;4.80;;
4957;SDS011;2494;51.872;9.688;2023-03-04T08:11:34;5.53;;;2.33;;
4957;SDS011;2494;51.872;9.688;2023-03-04T08:14:21;3.50;;;2.17;;
4957;SDS011;2494;51.872;9.688;2023-03-04T08:17:06;5.17;;;3.60;;
4957;SDS011;2494;51.872;9.688;2023-03-04T08:19:52;6.70;;;2.80;;
4957;SDS011;2494;51.872;9.688;2023-03-04T08:22:37;15.93;;;2.97;;
4957;SDS011;2494;51.872;9.688;2023-03-04T08:25:23;10.77;;;2.53;;
4957;SDS011;2494;51.872;9.688;2023-03-04T08:28:09;5.93;;;2.20;;
4957;SDS011;2494;51.872;9.688;2023-03-04T08:30:57;7.13;;;2.33;;
4957;SDS011;2494;51.872;9.688;2023-03-04T08:33:45;9.63;;;2.70;;
4957;SDS011;2494;51.872;9.688;2023-03-04T08:36:30;7.40;;;3.30;;
4957;SDS011;2494;51.872;9.688;2023-03-04T08:39:16;12.87;;;2.53;;
4957;SDS011;2494;51.872;9.688;2023-03-04T08:42:01;5.87;;;2.73;;
4957;SDS011;2494;51.872;9.688;2023-03-04T08:44:46;9.33;;;2.73;;
4957;SDS011;2494;51.872;9.688;2023-03-04T08:47:32;8.53;;;2.80;;
4957;SDS011;2494;51.872;9.688;2023-03-04T08:50:18;4.20;;;2.63;;
4957;SDS011;2494;51.872;9.688;2023-03-04T08:53:04;5.43;;;2.77;;
4957;SDS011;2494;51.872;9.688;2023-03-04T08:55:50;6.60;;;2.93;;
4957;SDS011;2494;51.872;9.688;2023-03-04T08:58:35;7.00;;;2.30;;
4957;SDS011;2494;51.872;9.688;2023-03-04T09:01:21;8.30;;;3.40;;
4957;SDS011;2494;51.872;9.688;2023-03-04T09:04:07;7.30;;;3.00;;
4957;SDS011;2494;51.872;9.688;2023-03-04T09:06:53;6.17;;;2.80;;
4957;SDS011;2494;51.872;9.688;2023-03-04T09:09:37;3.07;;;2.00;;
4957;SDS011;2494;51.872;9.688;2023-03-04T09:12:22;7.70;;;3.23;;
4957;SDS011;2494;51.872;9.688;2023-03-04T09:15:08;8.10;;;2.10;;
4957;SDS011;2494;51.872;9.688;2023-03-04T09:17:53;5.60;;;2.50;;
4957;SDS011;2494;51.872;9.688;2023-03-04T09:20:40;10.03;;;2.40;;
4957;SDS011;2494;51.872;9.688;2023-03-04T09:23:25;4.93;;;2.43;;
4957;SDS011;2494;51.872;9.688;2023-03-04T09:26:15;7.93;;;3.67;;
4957;SDS011;2494;51.872;9.688;2023-03-04T09:29:00;4.00;;;2.60;;
4957;SDS011;2494;51.872;9.688;2023-03-04T09:31:46;3.97;;;2.40;;
4957;SDS011;2494;51.872;9.688;2023-03-04T09:34:31;5.47;;;1.87;;
4957;SDS011;2494;51.872;9.688;2023-03-04T09:37:18;6.37;;;2.27;;
4957;SDS011;2494;51.872;9.688;2023-03-04T09:40:04;4.40;;;1.90;;
4957;SDS011;2494;51.872;9.688;2023-03-04T09:42:50;4.30;;;1.97;;
4957;SDS011;2494;51.872;9.688;2023-03-04T09:45:38;5.17;;;2.70;;
4957;SDS011;2494;51.872;9.688;2023-03-04T09:48:26;10.07;;;2.97;;
4957;SDS011;2494;51.872;9.688;2023-03-04T09:51:21;6.90;;;2.67;;
4957;SDS011;2494;51.872;9.688;2023-03-04T09:54:09;5.50;;;2.10;;
4957;SDS011;2494;51.872;9.688;2023-03-04T09:56:57;4.80;;;3.10;;
4957;SDS011;2494;51.872;9.688;2023-03-04T09:59:45;6.10;;;4.70;;
4957;SDS011;2494;51.872;9.688;2023-03-04T10:02:35;8.60;;;3.53;;
4957;SDS011;2494;51.872;9.688;2023-03-04T10:05:23;4.13;;;2.87;;
4957;SDS011;2494;51.872;9.688;2023-03-04T10:08:20;4.70;;;3.50;;
4957;SDS011;2494;51.872;9.688;2023-03-04T10:11:12;4.77;;;2.80;;
4957;SDS011;2494;51.872;9.688;2023-03-04T10:14:10;3.83;;;2.70;;
4957;SDS011;2494;51.872;9.688;2023-03-04T10:17:02;5.77;;;4.10;;
4957;SDS011;2494;51.872;9.688;2023-03-04T10:19:51;2.60;;;2.40;;
4957;SDS011;2494;51.872;9.688;2023-03-04T10:22:40;4.80;;;3.40;;
4957;SDS011;2494;51.872;9.688;2023-03-04T10:25:27;6.63;;;2.57;;
4957;SDS011;2494;51.872;9.688;2023-03-04T10:28:15;3.37;;;2.07;;
4957;SDS011;2494;51.872;9.688;2023-03-04T10:31:01;2.57;;;2.37;;
4957;SDS011;2494;51.872;9.688;2023-03-04T10:33:48;2.80;;;2.30;;
4957;SDS011;2494;51.872;9.688;2023-03-04T10:36:46;3.17;;;2.10;;
4957;SDS011;2494;51.872;9.688;2023-03-04T10:39:34;3.80;;;3.13;;
4957;SDS011;2494;51.872;9.688;2023-03-04T10:42:27;3.50;;;2.33;;
4957;SDS011;2494;51.872;9.688;2023-03-04T10:45:22;2.80;;;2.60;;
4957;SDS011;2494;51.872;9.688;2023-03-04T10:48:15;2.73;;;2.53;;
4957;SDS011;2494;51.872;9.688;2023-03-04T10:51:09;3.80;;;2.00;;
4957;SDS011;2494;51.872;9.688;2023-03-04T10:53:56;4.37;;;2.43;;
4957;SDS011;2494;51.872;9.688;2023-03-04T10:56:42;3.10;;;1.73;;
4957;SDS011;2494;51.872;9.688;2023-03-04T10:59:43;2.90;;;1.70;;
4957;SDS011;2494;51.872;9.688;2023-03-04T11:02:35;3.40;;;2.20;;
4957;SDS011;2494;51.872;9.688;2023-03-04T11:05:21;4.10;;;1.77;;
4957;SDS011;2494;51.872;9.688;2023-03-04T11:08:14;10.03;;;5.40;;
4957;SDS011;2494;51.872;9.688;2023-03-04T11:11:00;5.43;;;3.50;;
4957;SDS011;2494;51.872;9.688;2023-03-04T11:13:49;4.40;;;2.90;;
4957;SDS011;2494;51.872;9.688;2023-03-04T11:16:35;3.00;;;2.80;;
4957;SDS011;2494;51.872;9.688;2023-03-04T11:19:21;3.30;;;2.23;;
4957;SDS011;2494;51.872;9.688;2023-03-04T11:22:08;3.00;;;2.50;;
4957;SDS011;2494;51.872;9.688;2023-03-04T11:24:58;2.00;;;1.80;;
4957;SDS011;2494;51.872;9.688;2023-03-04T11:27:45;3.57;;;2.57;;
4957;SDS011;2494;51.872;9.688;2023-03-04T11:30:33;2.10;;;1.90;;
4957;SDS011;2494;51.872;9.688;2023-03-04T11:33:21;2.33;;;1.70;;
4957;SDS011;2494;51.872;9.688;2023-03-04T11:36:15;2.00;;;1.37;;
4957;SDS011;2494;51.872;9.688;2023-03-04T11:39:02;1.27;;;1.00;;
4957;SDS011;2494;51.872;9.688;2023-03-04T11:41:51;5.17;;;0.93;;
4957;SDS011;2494;51.872;9.688;2023-03-04T11:44:38;1.77;;;1.10;;
4957;SDS011;2494;51.872;9.688;2023-03-04T11:47:33;1.50;;;1.23;;
4957;SDS011;2494;51.872;9.688;2023-03-04T11:50:22;3.70;;;1.50;;
4957;SDS011;2494;51.872;9.688;2023-03-04T11:53:27;5.40;;;1.73;;
4957;SDS011;2494;51.872;9.688;2023-03-04T11:56:19;2.50;;;2.30;;
4957;SDS011;2494;51.872;9.688;2023-03-04T11:59:09;1.97;;;1.60;;
4957;SDS011;2494;51.872;9.688;2023-03-04T12:02:13;5.20;;;1.90;;
4957;SDS011;2494;51.872;9.688;2023-03-04T12:08:02;2.00;;;1.50;;
4957;SDS011;2494;51.872;9.688;2023-03-04T12:10:57;4.17;;;1.57;;
4957;SDS011;2494;51.872;9.688;2023-03-04T12:13:48;6.13;;;1.67;;
4957;SDS011;2494;51.872;9.688;2023-03-04T12:19:49;2.70;;;1.90;;
4957;SDS011;2494;51.872;9.688;2023-03-04T12:22:40;2.30;;;1.63;;
4957;SDS011;2494;51.872;9.688;2023-03-04T12:25:36;2.50;;;1.50;;
4957;SDS011;2494;51.872;9.688;2023-03-04T12:28:30;1.57;;;1.30;;
4957;SDS011;2494;51.872;9.688;2023-03-04T12:31:22;1.63;;;1.53;;
4957;SDS011;2494;51.872;9.688;2023-03-04T12:37:21;3.73;;;1.60;;
4957;SDS011;2494;51.872;9.688;2023-03-04T12:40:15;3.90;;;2.10;;
4957;SDS011;2494;51.872;9.688;2023-03-04T12:43:11;5.40;;;1.40;;
4957;SDS011;2494;51.872;9.688;2023-03-04T12:46:03;5.20;;;2.10;;
4957;SDS011;2494;51.872;9.688;2023-03-04T12:48:55;3.33;;;1.60;;
4957;SDS011;2494;51.872;9.688;2023-03-04T12:51:44;4.47;;;1.67;;
4957;SDS011;2494;51.872;9.688;2023-03-04T12:54:33;4.20;;;1.80;;
4957;SDS011;2494;51.872;9.688;2023-03-04T12:57:22;3.67;;;1.70;;
4957;SDS011;2494;51.872;9.688;2023-03-04T13:00:12;6.37;;;2.67;;
4957;SDS011;2494;51.872;9.688;2023-03-04T13:03:04;2.97;;;1.30;;
4957;SDS011;2494;51.872;9.688;2023-03-04T13:05:55;7.40;;;2.17;;
4957;SDS011;2494;51.872;9.688;2023-03-04T13:08:50;3.63;;;1.40;;
4957;SDS011;2494;51.872;9.688;2023-03-04T13:11:41;3.30;;;1.40;;
4957;SDS011;2494;51.872;9.688;2023-03-04T13:14:27;3.40;;;1.40;;
4957;SDS011;2494;51.872;9.688;2023-03-04T13:20:19;2.70;;;1.30;;
4957;SDS011;2494;51.872;9.688;2023-03-04T13:23:24;2.10;;;1.50;;
4957;SDS011;2494;51.872;9.688;2023-03-04T13:26:18;3.70;;;1.33;;
4957;SDS011;2494;51.872;9.688;2023-03-04T13:29:08;6.03;;;1.70;;
4957;SDS011;2494;51.872;9.688;2023-03-04T13:31:58;2.70;;;1.50;;
4957;SDS011;2494;51.872;9.688;2023-03-04T13:34:47;2.30;;;1.60;;
4957;SDS011;2494;51.872;9.688;2023-03-04T13:37:34;3.47;;;1.87;;
4957;SDS011;2494;51.872;9.688;2023-03-04T13:40:33;5.27;;;2.80;;
4957;SDS011;2494;51.872;9.688;2023-03-04T13:43:26;2.83;;;1.10;;
4957;SDS011;2494;51.872;9.688;2023-03-04T13:49:19;2.07;;;1.07;;
4957;SDS011;2494;51.872;9.688;2023-03-04T13:58:16;3.40;;;1.30;;
4957;SDS011;2494;51.872;9.688;2023-03-04T14:01:02;2.40;;;1.30;;
4957;SDS011;2494;51.872;9.688;2023-03-04T14:03:47;4.43;;;2.10;;
4957;SDS011;2494;51.872;9.688;2023-03-04T14:06:39;3.67;;;1.97;;
4957;SDS011;2494;51.872;9.688;2023-03-04T14:09:25;5.03;;;1.53;;
4957;SDS011;2494;51.872;9.688;2023-03-04T14:12:13;3.03;;;1.80;;
4957;SDS011;2494;51.872;9.688;2023-03-04T14:15:02;4.23;;;3.30;;
4957;SDS011;2494;51.872;9.688;2023-03-04T14:17:48;5.13;;;2.40;;
4957;SDS011;2494;51.872;9.688;2023-03-04T14:20:35;4.40;;;1.70;;
4957;SDS011;2494;51.872;9.688;2023-03-04T14:23:22;2.93;;;1.90;;
4957;SDS011;2494;51.872;9.688;2023-03-04T14:26:09;5.43;;;2.40;;
4957;SDS011;2494;51.872;9.688;2023-03-04T14:28:55;3.30;;;1.40;;
4957;SDS011;2494;51.872;9.688;2023-03-04T14:31:43;3.13;;;2.47;;
4957;SDS011;2494;51.872;9.688;2023-03-04T14:34:29;5.40;;;2.90;;
4957;SDS011;2494;51.872;9.688;2023-03-04T14:37:18;4.00;;;1.90;;
4957;SDS011;2494;51.872;9.688;2023-03-04T14:40:04;5.20;;;1.60;;
4957;SDS011;2494;51.872;9.688;2023-03-04T14:42:53;4.40;;;1.93;;
4957;SDS011;2494;51.872;9.688;2023-03-04T14:45:40;4.70;;;1.90;;
4957;SDS011;2494;51.872;9.688;2023-03-04T14:48:28;14.83;;;3.23;;
4957;SDS011;2494;51.872;9.688;2023-03-04T14:51:26;3.73;;;1.80;;
4957;SDS011;2494;51.872;9.688;2023-03-04T14:54:25;9.83;;;3.83;;
4957;SDS011;2494;51.872;9.688;2023-03-04T14:57:18;4.67;;;2.00;;
4957;SDS011;2494;51.872;9.688;2023-03-04T15:00:13;8.23;;;2.00;;
4957;SDS011;2494;51.872;9.688;2023-03-04T15:02:59;6.83;;;2.87;;
4957;SDS011;2494;51.872;9.688;2023-03-04T15:05:46;7.63;;;2.30;;
4957;SDS011;2494;51.872;9.688;2023-03-04T15:08:33;5.33;;;2.13;;
4957;SDS011;2494;51.872;9.688;2023-03-04T15:11:20;7.40;;;2.30;;
4957;SDS011;2494;51.872;9.688;2023-03-04T15:14:35;2.67;;;1.70;;
4957;SDS011;2494;51.872;9.688;2023-03-04T15:17:31;8.87;;;2.27;;
4957;SDS011;2494;51.872;9.688;2023-03-04T15:20:21;11.63;;;2.33;;
4957;SDS011;2494;51.872;9.688;2023-03-04T15:23:10;4.47;;;1.70;;
4957;SDS011;2494;51.872;9.688;2023-03-04T15:25:57;4.73;;;1.80;;
4957;SDS011;2494;51.872;9.688;2023-03-04T15:28:43;7.83;;;2.10;;
4957;SDS011;2494;51.872;9.688;2023-03-04T15:31:28;6.50;;;2.30;;
4957;SDS011;2494;51.872;9.688;2023-03-04T15:34:13;6.83;;;2.10;;
4957;SDS011;2494;51.872;9.688;2023-03-04T15:36:59;5.27;;;1.70;;
4957;SDS011;2494;51.872;9.688;2023-03-04T15:39:46;9.13;;;2.30;;
4957;SDS011;2494;51.872;9.688;2023-03-04T15:42:32;6.43;;;2.10;;
4957;SDS011;2494;51.872;9.688;2023-03-04T15:45:19;13.40;;;4.50;;
4957;SDS011;2494;51.872;9.688;2023-03-04T15:48:06;5.10;;;2.23;;
4957;SDS011;2494;51.872;9.688;2023-03-04T15:50:53;6.30;;;2.27;;
4957;SDS011;2494;51.872;9.688;2023-03-04T15:53:40;9.60;;;2.30;;
4957;SDS011;2494;51.872;9.688;2023-03-04T15:56:28;12.87;;;1.90;;
4957;SDS011;2494;51.872;9.688;2023-03-04T15:59:14;9.87;;;3.27;;
4957;SDS011;2494;51.872;9.688;2023-03-04T16:01:59;14.07;;;3.00;;
4957;SDS011;2494;51.872;9.688;2023-03-04T16:04:44;3.00;;;1.63;;
4957;SDS011;2494;51.872;9.688;2023-03-04T16:07:29;5.47;;;1.90;;
4957;SDS011;2494;51.872;9.688;2023-03-04T16:10:16;4.03;;;2.10;;
4957;SDS011;2494;51.872;9.688;2023-03-04T16:13:03;6.17;;;1.90;;
4957;SDS011;2494;51.872;9.688;2023-03-04T16:15:48;6.23;;;2.10;;
4957;SDS011;2494;51.872;9.688;2023-03-04T16:18:33;6.93;;;2.13;;
4957;SDS011;2494;51.872;9.688;2023-03-04T16:21:19;6.00;;;1.50;;
4957;SDS011;2494;51.872;9.688;2023-03-04T16:24:08;3.57;;;1.57;;
4957;SDS011;2494;51.872;9.688;2023-03-04T16:26:55;3.30;;;1.50;;
4957;SDS011;2494;51.872;9.688;2023-03-04T16:29:41;7.33;;;3.50;;
4957;SDS011;2494;51.872;9.688;2023-03-04T16:32:26;8.77;;;2.17;;
4957;SDS011;2494;51.872;9.688;2023-03-04T16:35:13;6.67;;;2.17;;
4957;SDS011;2494;51.872;9.688;2023-03-04T16:37:59;7.63;;;1.63;;
4957;SDS011;2494;51.872;9.688;2023-03-04T16:40:44;8.03;;;1.80;;
4957;SDS011;2494;51.872;9.688;2023-03-04T16:43:29;9.10;;;2.30;;
4957;SDS011;2494;51.872;9.688;2023-03-04T16:46:15;8.33;;;2.13;;
4957;SDS011;2494;51.872;9.688;2023-03-04T16:49:01;8.30;;;2.20;;
4957;SDS011;2494;51.872;9.688;2023-03-04T16:51:47;9.40;;;2.57;;
4957;SDS011;2494;51.872;9.688;2023-03-04T16:54:33;4.37;;;1.60;;
4957;SDS011;2494;51.872;9.688;2023-03-04T16:57:19;6.60;;;2.20;;
4957;SDS011;2494;51.872;9.688;2023-03-04T17:00:05;12.10;;;1.90;;
4957;SDS011;2494;51.872;9.688;2023-03-04T17:02:54;10.30;;;1.90;;
4957;SDS011;2494;51.872;9.688;2023-03-04T17:05:42;4.50;;;1.80;;
4957;SDS011;2494;51.872;9.688;2023-03-04T17:08:28;11.40;;;3.37;;
4957;SDS011;2494;51.872;9.688;2023-03-04T17:11:14;5.00;;;2.67;;
4957;SDS011;2494;51.872;9.688;2023-03-04T17:14:00;6.70;;;1.80;;
4957;SDS011;2494;51.872;9.688;2023-03-04T17:16:45;7.93;;;2.30;;
4957;SDS011;2494;51.872;9.688;2023-03-04T17:19:32;5.23;;;3.57;;
4957;SDS011;2494;51.872;9.688;2023-03-04T17:22:18;6.77;;;2.63;;
4957;SDS011;2494;51.872;9.688;2023-03-04T17:25:03;5.80;;;2.20;;
4957;SDS011;2494;51.872;9.688;2023-03-04T17:27:48;6.70;;;2.20;;
4957;SDS011;2494;51.872;9.688;2023-03-04T17:30:33;13.70;;;2.87;;
4957;SDS011;2494;51.872;9.688;2023-03-04T17:33:18;6.87;;;1.60;;
4957;SDS011;2494;51.872;9.688;2023-03-04T17:36:06;7.33;;;2.30;;